sensor_id;sensor_type;location;lat;lon;timestamp;P1;durP1;ratioP1;P2;durP2;ratioP2
13329;SDS011;6734;48.638;8.896;2022-08-04T00:02:22;3.63;;;2.60;;
13329;SDS011;6734;48.638;8.896;2022-08-04T00:05:00;2.63;;;2.40;;
13329;SDS011;6734;48.638;8.896;2022-08-04T00:07:44;3.97;;;2.20;;
13329;SDS011;6734;48.638;8.896;2022-08-04T00:10:17;2.67;;;2.40;;
13329;SDS011;6734;48.638;8.896;2022-08-04T00:12:47;3.47;;;2.43;;
13329;SDS011;6734;48.638;8.896;2022-08-04T00:15:14;3.73;;;2.20;;
13329;SDS011;6734;48.638;8.896;2022-08-04T00:17:45;3.03;;;2.20;;
13329;SDS011;6734;48.638;8.896;2022-08-04T00:20:16;2.97;;;2.47;;
13329;SDS011;6734;48.638;8.896;2022-08-04T00:22:44;2.53;;;2.33;;
13329;SDS011;6734;48.638;8.896;2022-08-04T00:25:11;2.60;;;2.33;;
13329;SDS011;6734;48.638;8.896;2022-08-04T00:27:37;2.30;;;2.10;;
13329;SDS011;6734;48.638;8.896;2022-08-04T00:30:03;2.90;;;2.30;;
13329;SDS011;6734;48.638;8.896;2022-08-04T00:32:30;3.13;;;2.37;;
13329;SDS011;6734;48.638;8.896;2022-08-04T00:34:57;3.07;;;2.50;;
13329;SDS011;6734;48.638;8.896;2022-08-04T00:37:23;3.67;;;2.47;;
13329;SDS011;6734;48.638;8.896;2022-08-04T00:39:53;2.60;;;2.40;;
13329;SDS011;6734;48.638;8.896;2022-08-04T00:48:12;2.43;;;2.20;;
13329;SDS011;6734;48.638;8.896;2022-08-04T00:50:44;2.83;;;2.20;;
13329;SDS011;6734;48.638;8.896;2022-08-04T00:58:57;2.40;;;2.20;;
13329;SDS011;6734;48.638;8.896;2022-08-04T01:01:37;3.87;;;2.50;;
13329;SDS011;6734;48.638;8.896;2022-08-04T01:09:57;3.33;;;2.30;;
13329;SDS011;6734;48.638;8.896;2022-08-04T01:15:48;2.30;;;2.10;;
13329;SDS011;6734;48.638;8.896;2022-08-04T01:21:41;2.40;;;2.00;;
13329;SDS011;6734;48.638;8.896;2022-08-04T01:29:58;2.27;;;2.00;;
13329;SDS011;6734;48.638;8.896;2022-08-04T01:35:04;3.90;;;2.10;;
13329;SDS011;6734;48.638;8.896;2022-08-04T01:40:37;2.80;;;2.10;;
13329;SDS011;6734;48.638;8.896;2022-08-04T01:43:04;3.50;;;2.37;;
13329;SDS011;6734;48.638;8.896;2022-08-04T01:45:29;2.50;;;2.17;;
13329;SDS011;6734;48.638;8.896;2022-08-04T01:47:56;2.63;;;2.00;;
13329;SDS011;6734;48.638;8.896;2022-08-04T01:50:23;2.40;;;2.20;;
13329;SDS011;6734;48.638;8.896;2022-08-04T01:52:52;2.33;;;2.10;;
13329;SDS011;6734;48.638;8.896;2022-08-04T01:55:18;2.83;;;2.53;;
13329;SDS011;6734;48.638;8.896;2022-08-04T01:57:46;2.33;;;2.13;;
13329;SDS011;6734;48.638;8.896;2022-08-04T02:00:15;2.67;;;2.27;;
13329;SDS011;6734;48.638;8.896;2022-08-04T02:02:52;2.87;;;2.30;;
13329;SDS011;6734;48.638;8.896;2022-08-04T02:05:20;2.60;;;2.10;;
13329;SDS011;6734;48.638;8.896;2022-08-04T02:07:49;2.53;;;2.17;;
13329;SDS011;6734;48.638;8.896;2022-08-04T02:13:20;3.57;;;2.20;;
13329;SDS011;6734;48.638;8.896;2022-08-04T02:16:03;2.80;;;2.30;;
13329;SDS011;6734;48.638;8.896;2022-08-04T02:21:05;2.57;;;2.20;;
13329;SDS011;6734;48.638;8.896;2022-08-04T02:23:36;2.30;;;2.10;;
13329;SDS011;6734;48.638;8.896;2022-08-04T02:26:10;3.07;;;2.33;;
13329;SDS011;6734;48.638;8.896;2022-08-04T02:36:30;2.77;;;2.30;;
13329;SDS011;6734;48.638;8.896;2022-08-04T02:39:04;2.23;;;2.00;;
13329;SDS011;6734;48.638;8.896;2022-08-04T02:41:32;3.73;;;2.37;;
13329;SDS011;6734;48.638;8.896;2022-08-04T02:43:59;3.27;;;2.50;;
13329;SDS011;6734;48.638;8.896;2022-08-04T02:46:28;2.70;;;2.33;;
13329;SDS011;6734;48.638;8.896;2022-08-04T02:48:55;2.50;;;2.30;;
13329;SDS011;6734;48.638;8.896;2022-08-04T02:51:28;2.37;;;2.17;;
13329;SDS011;6734;48.638;8.896;2022-08-04T02:53:55;4.47;;;2.43;;
13329;SDS011;6734;48.638;8.896;2022-08-04T02:56:22;2.77;;;2.40;;
13329;SDS011;6734;48.638;8.896;2022-08-04T02:58:50;2.90;;;1.90;;
13329;SDS011;6734;48.638;8.896;2022-08-04T03:01:19;2.67;;;2.40;;
13329;SDS011;6734;48.638;8.896;2022-08-04T03:12:00;3.50;;;2.53;;
13329;SDS011;6734;48.638;8.896;2022-08-04T03:36:18;2.50;;;2.30;;
13329;SDS011;6734;48.638;8.896;2022-08-04T03:39:36;3.37;;;2.30;;
13329;SDS011;6734;48.638;8.896;2022-08-04T03:42:13;4.40;;;2.60;;
13329;SDS011;6734;48.638;8.896;2022-08-04T04:38:33;3.23;;;2.80;;
13329;SDS011;6734;48.638;8.896;2022-08-04T04:46:40;3.53;;;2.60;;
13329;SDS011;6734;48.638;8.896;2022-08-04T04:51:59;5.80;;;3.20;;
13329;SDS011;6734;48.638;8.896;2022-08-04T04:54:36;3.40;;;2.80;;
13329;SDS011;6734;48.638;8.896;2022-08-04T04:57:13;3.10;;;2.80;;
13329;SDS011;6734;48.638;8.896;2022-08-04T04:59:49;6.73;;;3.00;;
13329;SDS011;6734;48.638;8.896;2022-08-04T05:16:20;3.63;;;3.30;;
13329;SDS011;6734;48.638;8.896;2022-08-04T05:21:52;3.30;;;3.00;;
13329;SDS011;6734;48.638;8.896;2022-08-04T05:24:34;3.13;;;2.70;;
13329;SDS011;6734;48.638;8.896;2022-08-04T05:27:07;3.97;;;3.57;;
13329;SDS011;6734;48.638;8.896;2022-08-04T05:29:50;3.73;;;3.10;;
13329;SDS011;6734;48.638;8.896;2022-08-04T05:32:22;3.53;;;3.13;;
13329;SDS011;6734;48.638;8.896;2022-08-04T05:34:51;3.63;;;3.30;;
13329;SDS011;6734;48.638;8.896;2022-08-04T05:37:22;3.60;;;3.20;;
13329;SDS011;6734;48.638;8.896;2022-08-04T05:40:02;3.97;;;3.57;;
13329;SDS011;6734;48.638;8.896;2022-08-04T05:42:30;5.37;;;3.17;;
13329;SDS011;6734;48.638;8.896;2022-08-04T05:44:58;5.97;;;3.30;;
13329;SDS011;6734;48.638;8.896;2022-08-04T05:47:24;4.53;;;3.30;;
13329;SDS011;6734;48.638;8.896;2022-08-04T05:49:52;3.63;;;3.23;;
13329;SDS011;6734;48.638;8.896;2022-08-04T05:52:19;5.60;;;3.67;;
13329;SDS011;6734;48.638;8.896;2022-08-04T05:54:45;3.93;;;3.53;;
13329;SDS011;6734;48.638;8.896;2022-08-04T05:57:12;4.87;;;3.50;;
13329;SDS011;6734;48.638;8.896;2022-08-04T05:59:40;3.83;;;3.53;;
13329;SDS011;6734;48.638;8.896;2022-08-04T06:02:10;3.80;;;3.40;;
13329;SDS011;6734;48.638;8.896;2022-08-04T06:04:38;4.30;;;3.13;;
13329;SDS011;6734;48.638;8.896;2022-08-04T06:07:05;4.50;;;3.63;;
13329;SDS011;6734;48.638;8.896;2022-08-04T06:09:33;6.57;;;3.43;;
13329;SDS011;6734;48.638;8.896;2022-08-04T06:11:59;3.57;;;3.27;;
13329;SDS011;6734;48.638;8.896;2022-08-04T06:14:28;3.60;;;3.30;;
13329;SDS011;6734;48.638;8.896;2022-08-04T06:17:00;3.83;;;3.43;;
13329;SDS011;6734;48.638;8.896;2022-08-04T06:19:29;4.33;;;3.60;;
13329;SDS011;6734;48.638;8.896;2022-08-04T06:21:59;4.73;;;3.83;;
13329;SDS011;6734;48.638;8.896;2022-08-04T06:24:27;4.93;;;3.50;;
13329;SDS011;6734;48.638;8.896;2022-08-04T06:26:54;3.90;;;3.40;;
13329;SDS011;6734;48.638;8.896;2022-08-04T06:29:21;4.00;;;3.60;;
13329;SDS011;6734;48.638;8.896;2022-08-04T06:31:55;4.77;;;3.50;;
13329;SDS011;6734;48.638;8.896;2022-08-04T06:34:24;4.00;;;3.57;;
13329;SDS011;6734;48.638;8.896;2022-08-04T06:36:51;5.47;;;3.17;;
13329;SDS011;6734;48.638;8.896;2022-08-04T06:39:17;4.80;;;3.37;;
13329;SDS011;6734;48.638;8.896;2022-08-04T06:41:44;4.63;;;3.60;;
13329;SDS011;6734;48.638;8.896;2022-08-04T06:44:10;4.10;;;3.50;;
13329;SDS011;6734;48.638;8.896;2022-08-04T06:46:39;4.73;;;3.63;;
13329;SDS011;6734;48.638;8.896;2022-08-04T06:49:05;6.90;;;3.43;;
13329;SDS011;6734;48.638;8.896;2022-08-04T06:51:32;8.50;;;3.60;;
13329;SDS011;6734;48.638;8.896;2022-08-04T06:54:00;3.73;;;3.30;;
13329;SDS011;6734;48.638;8.896;2022-08-04T06:56:26;5.03;;;3.77;;
13329;SDS011;6734;48.638;8.896;2022-08-04T06:58:53;4.63;;;3.23;;
13329;SDS011;6734;48.638;8.896;2022-08-04T07:01:19;4.67;;;3.47;;
13329;SDS011;6734;48.638;8.896;2022-08-04T07:03:47;3.30;;;3.00;;
13329;SDS011;6734;48.638;8.896;2022-08-04T07:06:13;3.97;;;3.20;;
13329;SDS011;6734;48.638;8.896;2022-08-04T07:08:39;4.10;;;3.43;;
13329;SDS011;6734;48.638;8.896;2022-08-04T07:11:05;4.47;;;3.57;;
13329;SDS011;6734;48.638;8.896;2022-08-04T07:13:32;4.33;;;3.30;;
13329;SDS011;6734;48.638;8.896;2022-08-04T07:15:59;3.60;;;3.30;;
13329;SDS011;6734;48.638;8.896;2022-08-04T07:18:25;4.63;;;3.70;;
13329;SDS011;6734;48.638;8.896;2022-08-04T07:20:51;5.37;;;4.10;;
13329;SDS011;6734;48.638;8.896;2022-08-04T07:23:21;6.33;;;3.27;;
13329;SDS011;6734;48.638;8.896;2022-08-04T07:25:52;5.83;;;3.40;;
13329;SDS011;6734;48.638;8.896;2022-08-04T07:28:20;4.47;;;2.97;;
13329;SDS011;6734;48.638;8.896;2022-08-04T07:30:47;3.50;;;3.00;;
13329;SDS011;6734;48.638;8.896;2022-08-04T07:33:16;4.23;;;2.90;;
13329;SDS011;6734;48.638;8.896;2022-08-04T07:35:42;4.90;;;2.90;;
13329;SDS011;6734;48.638;8.896;2022-08-04T07:38:09;3.40;;;2.70;;
13329;SDS011;6734;48.638;8.896;2022-08-04T07:40:38;5.93;;;2.40;;
13329;SDS011;6734;48.638;8.896;2022-08-04T07:43:04;2.93;;;2.63;;
13329;SDS011;6734;48.638;8.896;2022-08-04T07:45:30;4.30;;;2.50;;
13329;SDS011;6734;48.638;8.896;2022-08-04T07:47:56;3.30;;;2.73;;
13329;SDS011;6734;48.638;8.896;2022-08-04T07:50:23;3.47;;;3.17;;
13329;SDS011;6734;48.638;8.896;2022-08-04T07:52:50;2.90;;;2.60;;
13329;SDS011;6734;48.638;8.896;2022-08-04T07:55:16;2.47;;;2.27;;
13329;SDS011;6734;48.638;8.896;2022-08-04T07:57:43;2.97;;;2.50;;
13329;SDS011;6734;48.638;8.896;2022-08-04T08:00:09;3.10;;;2.40;;
13329;SDS011;6734;48.638;8.896;2022-08-04T08:02:38;5.60;;;3.53;;
13329;SDS011;6734;48.638;8.896;2022-08-04T08:05:11;3.57;;;2.27;;
13329;SDS011;6734;48.638;8.896;2022-08-04T08:07:37;4.00;;;2.27;;
13329;SDS011;6734;48.638;8.896;2022-08-04T08:10:03;2.53;;;2.33;;
13329;SDS011;6734;48.638;8.896;2022-08-04T08:12:30;2.90;;;2.60;;
13329;SDS011;6734;48.638;8.896;2022-08-04T08:14:57;2.53;;;2.33;;
13329;SDS011;6734;48.638;8.896;2022-08-04T08:17:23;2.33;;;2.13;;
13329;SDS011;6734;48.638;8.896;2022-08-04T08:19:49;2.87;;;2.67;;
13329;SDS011;6734;48.638;8.896;2022-08-04T08:22:15;3.13;;;2.77;;
13329;SDS011;6734;48.638;8.896;2022-08-04T08:24:41;2.80;;;2.60;;
13329;SDS011;6734;48.638;8.896;2022-08-04T08:27:06;3.33;;;2.97;;
13329;SDS011;6734;48.638;8.896;2022-08-04T08:29:33;4.43;;;3.00;;
13329;SDS011;6734;48.638;8.896;2022-08-04T08:32:00;2.97;;;2.77;;
13329;SDS011;6734;48.638;8.896;2022-08-04T08:34:27;3.83;;;2.97;;
13329;SDS011;6734;48.638;8.896;2022-08-04T08:36:58;2.83;;;2.50;;
13329;SDS011;6734;48.638;8.896;2022-08-04T08:39:32;3.37;;;2.63;;
13329;SDS011;6734;48.638;8.896;2022-08-04T08:50:46;6.37;;;3.20;;
13329;SDS011;6734;48.638;8.896;2022-08-04T08:53:39;5.07;;;3.00;;
13329;SDS011;6734;48.638;8.896;2022-08-04T08:56:32;4.33;;;2.80;;
13329;SDS011;6734;48.638;8.896;2022-08-04T09:08:00;4.93;;;4.23;;
13329;SDS011;6734;48.638;8.896;2022-08-04T09:10:44;3.37;;;3.07;;
13329;SDS011;6734;48.638;8.896;2022-08-04T09:13:23;6.23;;;3.10;;
13329;SDS011;6734;48.638;8.896;2022-08-04T09:18:35;3.47;;;2.87;;
13329;SDS011;6734;48.638;8.896;2022-08-04T09:21:03;5.17;;;2.57;;
13329;SDS011;6734;48.638;8.896;2022-08-04T09:31:23;2.73;;;2.50;;
13329;SDS011;6734;48.638;8.896;2022-08-04T09:36:40;4.77;;;2.90;;
13329;SDS011;6734;48.638;8.896;2022-08-04T09:39:27;3.50;;;2.87;;
13329;SDS011;6734;48.638;8.896;2022-08-04T09:57:42;3.17;;;2.80;;
13329;SDS011;6734;48.638;8.896;2022-08-04T10:00:10;2.83;;;2.63;;
13329;SDS011;6734;48.638;8.896;2022-08-04T10:02:45;5.00;;;2.27;;
13329;SDS011;6734;48.638;8.896;2022-08-04T10:05:15;2.30;;;2.10;;
13329;SDS011;6734;48.638;8.896;2022-08-04T10:13:19;2.30;;;2.10;;
13329;SDS011;6734;48.638;8.896;2022-08-04T10:16:10;2.90;;;2.70;;
13329;SDS011;6734;48.638;8.896;2022-08-04T10:27:06;2.87;;;2.50;;
13329;SDS011;6734;48.638;8.896;2022-08-04T10:29:43;2.00;;;1.80;;
13329;SDS011;6734;48.638;8.896;2022-08-04T10:32:32;5.13;;;1.83;;
13329;SDS011;6734;48.638;8.896;2022-08-04T10:35:09;2.83;;;1.90;;
13329;SDS011;6734;48.638;8.896;2022-08-04T10:40:13;2.50;;;2.30;;
13329;SDS011;6734;48.638;8.896;2022-08-04T10:45:38;1.80;;;1.70;;
13329;SDS011;6734;48.638;8.896;2022-08-04T10:50:39;2.57;;;2.20;;
13329;SDS011;6734;48.638;8.896;2022-08-04T10:53:16;3.17;;;2.00;;
13329;SDS011;6734;48.638;8.896;2022-08-04T10:58:13;2.37;;;2.20;;
13329;SDS011;6734;48.638;8.896;2022-08-04T11:00:44;2.40;;;1.80;;
13329;SDS011;6734;48.638;8.896;2022-08-04T11:05:50;3.63;;;2.17;;
13329;SDS011;6734;48.638;8.896;2022-08-04T11:08:19;2.97;;;2.30;;
13329;SDS011;6734;48.638;8.896;2022-08-04T11:13:28;3.37;;;2.33;;
13329;SDS011;6734;48.638;8.896;2022-08-04T11:15:55;2.07;;;1.80;;
13329;SDS011;6734;48.638;8.896;2022-08-04T11:21:19;2.80;;;2.30;;
13329;SDS011;6734;48.638;8.896;2022-08-04T11:26:48;4.63;;;2.43;;
13329;SDS011;6734;48.638;8.896;2022-08-04T11:31:56;2.57;;;2.37;;
13329;SDS011;6734;48.638;8.896;2022-08-04T11:34:24;2.73;;;2.10;;
13329;SDS011;6734;48.638;8.896;2022-08-04T11:36:57;2.40;;;2.08;;
13329;SDS011;6734;48.638;8.896;2022-08-04T11:41:56;2.80;;;2.60;;
13329;SDS011;6734;48.638;8.896;2022-08-04T11:50:01;4.05;;;2.40;;
13329;SDS011;6734;48.638;8.896;2022-08-04T11:52:44;2.60;;;2.40;;
13329;SDS011;6734;48.638;8.896;2022-08-04T11:55:12;2.50;;;2.30;;
13329;SDS011;6734;48.638;8.896;2022-08-04T11:57:40;2.60;;;2.40;;
13329;SDS011;6734;48.638;8.896;2022-08-04T12:00:08;2.93;;;2.57;;
13329;SDS011;6734;48.638;8.896;2022-08-04T12:05:24;4.07;;;2.35;;
13329;SDS011;6734;48.638;8.896;2022-08-04T12:15:54;5.17;;;2.67;;
13329;SDS011;6734;48.638;8.896;2022-08-04T12:18:22;2.72;;;2.53;;
13329;SDS011;6734;48.638;8.896;2022-08-04T12:20:58;2.80;;;2.50;;
13329;SDS011;6734;48.638;8.896;2022-08-04T12:23:29;2.78;;;2.40;;
13329;SDS011;6734;48.638;8.896;2022-08-04T12:26:00;3.70;;;2.60;;
13329;SDS011;6734;48.638;8.896;2022-08-04T12:31:17;3.47;;;2.53;;
13329;SDS011;6734;48.638;8.896;2022-08-04T12:33:48;3.60;;;2.20;;
13329;SDS011;6734;48.638;8.896;2022-08-04T12:36:19;2.28;;;2.17;;
13329;SDS011;6734;48.638;8.896;2022-08-04T12:38:57;3.10;;;2.90;;
13329;SDS011;6734;48.638;8.896;2022-08-04T12:41:38;2.72;;;2.38;;
13329;SDS011;6734;48.638;8.896;2022-08-04T12:44:09;4.65;;;2.70;;
13329;SDS011;6734;48.638;8.896;2022-08-04T12:46:37;4.25;;;2.47;;
13329;SDS011;6734;48.638;8.896;2022-08-04T12:49:05;5.70;;;2.55;;
13329;SDS011;6734;48.638;8.896;2022-08-04T12:51:36;2.63;;;2.30;;
13329;SDS011;6734;48.638;8.896;2022-08-04T12:54:03;3.33;;;2.92;;
13329;SDS011;6734;48.638;8.896;2022-08-04T12:56:30;2.70;;;2.50;;
13329;SDS011;6734;48.638;8.896;2022-08-04T12:59:01;2.92;;;2.50;;
13329;SDS011;6734;48.638;8.896;2022-08-04T13:01:29;4.75;;;3.10;;
13329;SDS011;6734;48.638;8.896;2022-08-04T13:03:56;3.13;;;2.83;;
13329;SDS011;6734;48.638;8.896;2022-08-04T13:06:33;2.80;;;2.50;;
13329;SDS011;6734;48.638;8.896;2022-08-04T13:09:03;3.40;;;2.65;;
13329;SDS011;6734;48.638;8.896;2022-08-04T13:11:52;3.78;;;3.00;;
13329;SDS011;6734;48.638;8.896;2022-08-04T13:14:21;3.85;;;2.58;;
13329;SDS011;6734;48.638;8.896;2022-08-04T13:16:55;3.17;;;2.88;;
13329;SDS011;6734;48.638;8.896;2022-08-04T13:19:21;3.28;;;2.97;;
13329;SDS011;6734;48.638;8.896;2022-08-04T13:21:46;3.20;;;2.90;;
13329;SDS011;6734;48.638;8.896;2022-08-04T13:24:13;3.20;;;2.90;;
13329;SDS011;6734;48.638;8.896;2022-08-04T13:26:49;3.00;;;2.45;;
13329;SDS011;6734;48.638;8.896;2022-08-04T13:29:48;3.33;;;3.08;;
13329;SDS011;6734;48.638;8.896;2022-08-04T13:32:17;4.07;;;2.67;;
13329;SDS011;6734;48.638;8.896;2022-08-04T13:34:46;2.80;;;2.53;;
13329;SDS011;6734;48.638;8.896;2022-08-04T13:37:15;4.60;;;2.60;;
13329;SDS011;6734;48.638;8.896;2022-08-04T13:39:43;3.15;;;2.40;;
13329;SDS011;6734;48.638;8.896;2022-08-04T13:42:11;2.70;;;2.50;;
13329;SDS011;6734;48.638;8.896;2022-08-04T13:44:38;4.28;;;2.83;;
13329;SDS011;6734;48.638;8.896;2022-08-04T13:47:28;3.08;;;2.78;;
13329;SDS011;6734;48.638;8.896;2022-08-04T13:50:20;2.60;;;2.40;;
13329;SDS011;6734;48.638;8.896;2022-08-04T13:52:51;4.18;;;2.83;;
13329;SDS011;6734;48.638;8.896;2022-08-04T13:57:54;2.70;;;2.50;;
13329;SDS011;6734;48.638;8.896;2022-08-04T14:00:21;2.83;;;2.63;;
13329;SDS011;6734;48.638;8.896;2022-08-04T14:02:49;3.50;;;3.00;;
13329;SDS011;6734;48.638;8.896;2022-08-04T14:05:23;6.13;;;3.03;;
13329;SDS011;6734;48.638;8.896;2022-08-04T14:07:54;4.13;;;3.10;;
13329;SDS011;6734;48.638;8.896;2022-08-04T14:10:21;3.40;;;2.78;;
13329;SDS011;6734;48.638;8.896;2022-08-04T14:12:48;2.85;;;2.60;;
13329;SDS011;6734;48.638;8.896;2022-08-04T14:18:16;3.25;;;2.42;;
13329;SDS011;6734;48.638;8.896;2022-08-04T14:21:43;4.97;;;3.03;;
13329;SDS011;6734;48.638;8.896;2022-08-04T14:23:51;2.78;;;2.58;;
13329;SDS011;6734;48.638;8.896;2022-08-04T14:28:51;5.57;;;2.75;;
13329;SDS011;6734;48.638;8.896;2022-08-04T14:31:21;3.30;;;3.00;;
13329;SDS011;6734;48.638;8.896;2022-08-04T14:33:48;3.63;;;2.70;;
13329;SDS011;6734;48.638;8.896;2022-08-04T14:36:16;3.72;;;2.83;;
13329;SDS011;6734;48.638;8.896;2022-08-04T14:41:08;2.88;;;2.67;;
13329;SDS011;6734;48.638;8.896;2022-08-04T14:43:48;3.83;;;3.00;;
13329;SDS011;6734;48.638;8.896;2022-08-04T14:46:15;2.90;;;2.70;;
13329;SDS011;6734;48.638;8.896;2022-08-04T14:48:58;3.15;;;2.80;;
13329;SDS011;6734;48.638;8.896;2022-08-04T14:51:24;3.25;;;2.90;;
13329;SDS011;6734;48.638;8.896;2022-08-04T14:53:50;3.67;;;2.90;;
13329;SDS011;6734;48.638;8.896;2022-08-04T14:56:17;3.00;;;2.80;;
13329;SDS011;6734;48.638;8.896;2022-08-04T14:58:43;5.00;;;2.95;;
13329;SDS011;6734;48.638;8.896;2022-08-04T15:01:09;2.83;;;2.63;;
13329;SDS011;6734;48.638;8.896;2022-08-04T15:03:36;3.08;;;2.75;;
13329;SDS011;6734;48.638;8.896;2022-08-04T15:06:07;3.20;;;2.95;;
13329;SDS011;6734;48.638;8.896;2022-08-04T15:08:34;3.55;;;3.25;;
13329;SDS011;6734;48.638;8.896;2022-08-04T15:11:00;3.33;;;2.80;;
13329;SDS011;6734;48.638;8.896;2022-08-04T15:13:27;5.22;;;2.65;;
13329;SDS011;6734;48.638;8.896;2022-08-04T15:15:53;2.92;;;2.72;;
13329;SDS011;6734;48.638;8.896;2022-08-04T15:18:19;4.10;;;2.90;;
13329;SDS011;6734;48.638;8.896;2022-08-04T15:20:45;3.30;;;2.78;;
13329;SDS011;6734;48.638;8.896;2022-08-04T15:23:11;3.50;;;3.20;;
13329;SDS011;6734;48.638;8.896;2022-08-04T15:25:45;3.13;;;2.88;;
13329;SDS011;6734;48.638;8.896;2022-08-04T15:28:15;4.97;;;2.75;;
13329;SDS011;6734;48.638;8.896;2022-08-04T15:30:43;3.20;;;2.97;;
13329;SDS011;6734;48.638;8.896;2022-08-04T15:33:11;5.53;;;3.13;;
13329;SDS011;6734;48.638;8.896;2022-08-04T15:35:39;3.03;;;2.78;;
13329;SDS011;6734;48.638;8.896;2022-08-04T15:38:08;3.65;;;2.97;;
13329;SDS011;6734;48.638;8.896;2022-08-04T15:40:45;3.03;;;2.83;;
13329;SDS011;6734;48.638;8.896;2022-08-04T15:45:46;3.17;;;2.72;;
13329;SDS011;6734;48.638;8.896;2022-08-04T15:58:51;3.08;;;2.83;;
13329;SDS011;6734;48.638;8.896;2022-08-04T16:01:18;4.97;;;2.67;;
13329;SDS011;6734;48.638;8.896;2022-08-04T16:03:45;3.05;;;2.85;;
13329;SDS011;6734;48.638;8.896;2022-08-04T16:06:40;6.28;;;2.90;;
13329;SDS011;6734;48.638;8.896;2022-08-04T16:09:03;3.42;;;3.13;;
13329;SDS011;6734;48.638;8.896;2022-08-04T16:16:30;3.35;;;3.00;;
13329;SDS011;6734;48.638;8.896;2022-08-04T16:21:46;4.63;;;2.80;;
13329;SDS011;6734;48.638;8.896;2022-08-04T16:24:27;3.05;;;2.78;;
13329;SDS011;6734;48.638;8.896;2022-08-04T16:27:07;3.30;;;2.88;;
13329;SDS011;6734;48.638;8.896;2022-08-04T16:29:43;5.72;;;2.80;;
13329;SDS011;6734;48.638;8.896;2022-08-04T16:32:12;4.10;;;2.88;;
13329;SDS011;6734;48.638;8.896;2022-08-04T16:34:48;2.92;;;2.72;;
13329;SDS011;6734;48.638;8.896;2022-08-04T16:37:36;3.15;;;2.85;;
13329;SDS011;6734;48.638;8.896;2022-08-04T16:40:22;3.17;;;2.90;;
13329;SDS011;6734;48.638;8.896;2022-08-04T16:42:52;3.95;;;2.92;;
13329;SDS011;6734;48.638;8.896;2022-08-04T16:45:22;3.30;;;3.00;;
13329;SDS011;6734;48.638;8.896;2022-08-04T16:48:06;4.32;;;3.10;;
13329;SDS011;6734;48.638;8.896;2022-08-04T16:50:33;3.10;;;2.83;;
13329;SDS011;6734;48.638;8.896;2022-08-04T16:53:10;3.33;;;3.10;;
13329;SDS011;6734;48.638;8.896;2022-08-04T16:55:37;5.50;;;2.80;;
13329;SDS011;6734;48.638;8.896;2022-08-04T16:58:03;6.38;;;3.13;;
13329;SDS011;6734;48.638;8.896;2022-08-04T17:03:06;3.50;;;2.90;;
13329;SDS011;6734;48.638;8.896;2022-08-04T17:05:32;3.17;;;2.70;;
13329;SDS011;6734;48.638;8.896;2022-08-04T17:07:59;9.55;;;2.90;;
13329;SDS011;6734;48.638;8.896;2022-08-04T17:13:31;3.33;;;3.03;;
13329;SDS011;6734;48.638;8.896;2022-08-04T17:15:59;4.82;;;3.00;;
13329;SDS011;6734;48.638;8.896;2022-08-04T17:18:28;3.55;;;2.85;;
13329;SDS011;6734;48.638;8.896;2022-08-04T17:20:56;3.05;;;2.80;;
13329;SDS011;6734;48.638;8.896;2022-08-04T17:23:28;3.45;;;2.90;;
13329;SDS011;6734;48.638;8.896;2022-08-04T17:26:02;3.92;;;3.08;;
13329;SDS011;6734;48.638;8.896;2022-08-04T17:28:29;3.10;;;2.83;;
13329;SDS011;6734;48.638;8.896;2022-08-04T17:30:55;6.25;;;2.95;;
13329;SDS011;6734;48.638;8.896;2022-08-04T17:33:22;3.22;;;2.97;;
13329;SDS011;6734;48.638;8.896;2022-08-04T17:35:48;3.25;;;3.03;;
13329;SDS011;6734;48.638;8.896;2022-08-04T17:38:14;5.22;;;3.10;;
13329;SDS011;6734;48.638;8.896;2022-08-04T17:40:51;4.75;;;2.97;;
13329;SDS011;6734;48.638;8.896;2022-08-04T17:43:17;5.63;;;3.72;;
13329;SDS011;6734;48.638;8.896;2022-08-04T17:45:43;5.85;;;3.58;;
13329;SDS011;6734;48.638;8.896;2022-08-04T17:48:18;4.15;;;3.63;;
13329;SDS011;6734;48.638;8.896;2022-08-04T17:50:47;7.07;;;3.20;;
13329;SDS011;6734;48.638;8.896;2022-08-04T17:53:13;3.85;;;3.20;;
13329;SDS011;6734;48.638;8.896;2022-08-04T17:58:12;4.88;;;3.47;;
13329;SDS011;6734;48.638;8.896;2022-08-04T18:00:42;3.65;;;3.10;;
13329;SDS011;6734;48.638;8.896;2022-08-04T18:03:20;3.63;;;3.30;;
13329;SDS011;6734;48.638;8.896;2022-08-04T18:05:47;3.55;;;2.95;;
13329;SDS011;6734;48.638;8.896;2022-08-04T18:08:14;4.80;;;3.28;;
13329;SDS011;6734;48.638;8.896;2022-08-04T18:10:41;3.85;;;3.33;;
13329;SDS011;6734;48.638;8.896;2022-08-04T18:13:07;5.50;;;3.13;;
13329;SDS011;6734;48.638;8.896;2022-08-04T18:15:33;3.80;;;3.30;;
13329;SDS011;6734;48.638;8.896;2022-08-04T18:18:13;4.88;;;3.20;;
13329;SDS011;6734;48.638;8.896;2022-08-04T18:20:40;5.15;;;3.35;;
13329;SDS011;6734;48.638;8.896;2022-08-04T18:23:08;4.80;;;3.17;;
13329;SDS011;6734;48.638;8.896;2022-08-04T18:25:35;3.00;;;2.70;;
13329;SDS011;6734;48.638;8.896;2022-08-04T18:28:01;5.93;;;3.40;;
13329;SDS011;6734;48.638;8.896;2022-08-04T18:30:29;5.75;;;3.45;;
13329;SDS011;6734;48.638;8.896;2022-08-04T18:32:54;3.83;;;3.43;;
13329;SDS011;6734;48.638;8.896;2022-08-04T18:35:21;3.93;;;3.10;;
13329;SDS011;6734;48.638;8.896;2022-08-04T18:37:47;5.90;;;3.37;;
13329;SDS011;6734;48.638;8.896;2022-08-04T18:40:15;5.97;;;3.23;;
13329;SDS011;6734;48.638;8.896;2022-08-04T18:42:41;3.60;;;3.20;;
13329;SDS011;6734;48.638;8.896;2022-08-04T18:45:07;5.53;;;3.80;;
13329;SDS011;6734;48.638;8.896;2022-08-04T18:47:37;5.13;;;3.83;;
13329;SDS011;6734;48.638;8.896;2022-08-04T18:50:03;3.87;;;3.47;;
13329;SDS011;6734;48.638;8.896;2022-08-04T18:52:29;4.13;;;3.67;;
13329;SDS011;6734;48.638;8.896;2022-08-04T18:54:55;7.50;;;3.73;;
13329;SDS011;6734;48.638;8.896;2022-08-04T18:57:22;4.03;;;3.27;;
13329;SDS011;6734;48.638;8.896;2022-08-04T18:59:49;5.30;;;3.93;;
13329;SDS011;6734;48.638;8.896;2022-08-04T19:02:15;6.70;;;3.83;;
13329;SDS011;6734;48.638;8.896;2022-08-04T19:04:41;7.80;;;3.60;;
13329;SDS011;6734;48.638;8.896;2022-08-04T19:07:07;4.10;;;3.70;;
13329;SDS011;6734;48.638;8.896;2022-08-04T19:09:33;6.07;;;3.80;;
13329;SDS011;6734;48.638;8.896;2022-08-04T19:11:59;6.50;;;3.67;;
13329;SDS011;6734;48.638;8.896;2022-08-04T19:14:25;4.77;;;3.50;;
13329;SDS011;6734;48.638;8.896;2022-08-04T19:16:51;5.60;;;3.17;;
13329;SDS011;6734;48.638;8.896;2022-08-04T19:19:16;3.47;;;3.17;;
13329;SDS011;6734;48.638;8.896;2022-08-04T19:21:44;5.60;;;3.60;;
13329;SDS011;6734;48.638;8.896;2022-08-04T19:24:09;6.10;;;3.23;;
13329;SDS011;6734;48.638;8.896;2022-08-04T19:26:39;5.63;;;3.50;;
13329;SDS011;6734;48.638;8.896;2022-08-04T19:29:04;5.53;;;3.20;;
13329;SDS011;6734;48.638;8.896;2022-08-04T19:31:30;5.70;;;3.10;;
13329;SDS011;6734;48.638;8.896;2022-08-04T19:33:56;4.87;;;3.37;;
13329;SDS011;6734;48.638;8.896;2022-08-04T19:36:22;5.67;;;3.80;;
13329;SDS011;6734;48.638;8.896;2022-08-04T19:38:49;4.80;;;3.90;;
13329;SDS011;6734;48.638;8.896;2022-08-04T19:41:15;4.67;;;3.63;;
13329;SDS011;6734;48.638;8.896;2022-08-04T19:43:41;5.07;;;4.00;;
13329;SDS011;6734;48.638;8.896;2022-08-04T19:46:07;4.50;;;4.10;;
13329;SDS011;6734;48.638;8.896;2022-08-04T19:48:33;5.20;;;4.13;;
13329;SDS011;6734;48.638;8.896;2022-08-04T19:50:59;4.30;;;3.83;;
13329;SDS011;6734;48.638;8.896;2022-08-04T19:53:24;4.33;;;3.53;;
13329;SDS011;6734;48.638;8.896;2022-08-04T19:55:50;3.87;;;3.47;;
13329;SDS011;6734;48.638;8.896;2022-08-04T19:58:16;6.23;;;3.90;;
13329;SDS011;6734;48.638;8.896;2022-08-04T20:00:43;4.20;;;3.83;;
13329;SDS011;6734;48.638;8.896;2022-08-04T20:03:09;5.63;;;3.60;;
13329;SDS011;6734;48.638;8.896;2022-08-04T20:05:37;4.47;;;3.73;;
13329;SDS011;6734;48.638;8.896;2022-08-04T20:08:04;3.73;;;3.43;;
13329;SDS011;6734;48.638;8.896;2022-08-04T20:10:30;4.03;;;3.60;;
13329;SDS011;6734;48.638;8.896;2022-08-04T20:12:56;5.83;;;4.70;;
13329;SDS011;6734;48.638;8.896;2022-08-04T20:15:22;7.27;;;3.80;;
13329;SDS011;6734;48.638;8.896;2022-08-04T20:17:48;5.27;;;3.77;;
13329;SDS011;6734;48.638;8.896;2022-08-04T20:20:14;4.73;;;3.43;;
13329;SDS011;6734;48.638;8.896;2022-08-04T20:22:40;3.53;;;3.23;;